Time,TemperatureF,DewpointF,PressureIn,WindDirection,WindDirectionDegrees,WindSpeedMPH,WindSpeedGustMPH,Humidity,HourlyPrecipIn,Conditions,Clouds,dailyrainin,SoftwareType,DateUTC
2013-05-22 00:01:00,51.8,40.4,29.94,WNW,293,0.4,2.0,65,0.00,,,0.00,WUHU216HW,2013-05-22 07:01:00,
2013-05-22 00:06:00,51.5,40.1,29.94,West,270,0.4,2.0,65,0.00,,,0.00,WUHU216HW,2013-05-22 07:06:00,
2013-05-22 00:11:00,51.5,40.5,29.94,West,270,0.7,2.0,66,0.00,,,0.00,WUHU216HW,2013-05-22 07:11:00,
2013-05-22 00:16:00,51.3,40.3,29.94,SW,225,0.7,2.5,66,0.00,,,0.00,WUHU216HW,2013-05-22 07:16:00,
2013-05-22 00:21:00,51.1,40.2,29.94,West,270,1.8,2.5,66,0.00,,,0.00,WUHU216HW,2013-05-22 07:21:00,
2013-05-22 00:26:00,51.1,40.5,29.94,West,270,0.9,3.8,67,0.00,,,0.00,WUHU216HW,2013-05-22 07:26:00,
2013-05-22 00:31:00,50.9,40.3,29.95,WNW,293,4.0,6.0,67,0.00,,,0.00,WUHU216HW,2013-05-22 07:31:00,
2013-05-22 00:36:00,50.8,40.2,29.95,WNW,293,0.4,6.0,67,0.00,,,0.00,WUHU216HW,2013-05-22 07:36:00,
2013-05-22 00:41:00,50.8,40.6,29.94,WNW,293,1.8,1.8,68,0.00,,,0.00,WUHU216HW,2013-05-22 07:41:00,
2013-05-22 00:46:00,50.6,40.4,29.95,SW,225,0.4,1.8,68,0.00,,,0.00,WUHU216HW,2013-05-22 07:46:00,
2013-05-22 00:51:00,50.4,39.9,29.95,West,270,0.7,2.2,67,0.00,,,0.00,WUHU216HW,2013-05-22 07:51:00,
2013-05-22 00:56:00,50.4,39.9,29.95,West,270,1.6,2.2,67,0.00,,,0.00,WUHU216HW,2013-05-22 07:56:00,
2013-05-22 01:01:00,50.2,39.7,29.95,West,270,0.9,4.7,67,0.00,,,0.00,WUHU216HW,2013-05-22 08:01:00,
2013-05-22 01:06:00,50.0,39.5,29.95,West,270,0.2,4.7,67,0.00,,,0.00,WUHU216HW,2013-05-22 08:06:00,
2013-05-22 01:11:00,49.9,39.3,29.95,West,270,0.0,2.0,67,0.00,,,0.00,WUHU216HW,2013-05-22 08:11:00,
2013-05-22 01:16:00,49.7,39.2,29.95,West,270,2.2,2.2,67,0.00,,,0.00,WUHU216HW,2013-05-22 08:16:00,
2013-05-22 01:21:00,49.5,39.0,29.95,NW,315,1.1,2.2,67,0.00,,,0.00,WUHU216HW,2013-05-22 08:21:00,
2013-05-22 01:26:00,49.3,38.8,29.95,NW,315,1.1,2.0,67,0.00,,,0.00,WUHU216HW,2013-05-22 08:26:00,
2013-05-22 01:31:00,49.3,38.8,29.95,NW,315,1.1,2.0,67,0.00,,,0.00,WUHU216HW,2013-05-22 08:31:00,
2013-05-22 01:36:00,49.3,38.4,29.95,WNW,293,1.8,3.4,66,0.00,,,0.00,WUHU216HW,2013-05-22 08:36:00,
2013-05-22 01:41:00,49.3,38.4,29.95,NW,315,0.4,3.4,66,0.00,,,0.00,WUHU216HW,2013-05-22 08:41:00,
2013-05-22 01:46:00,49.3,38.4,29.95,WNW,293,1.1,1.8,66,0.00,,,0.00,WUHU216HW,2013-05-22 08:46:00,
2013-05-22 01:51:00,49.3,38.4,29.95,West,270,3.4,3.4,66,0.00,,,0.00,WUHU216HW,2013-05-22 08:51:00,
2013-05-22 01:56:00,49.3,38.4,29.95,NW,315,0.4,3.4,66,0.00,,,0.00,WUHU216HW,2013-05-22 08:56:00,
2013-05-22 02:01:00,49.1,38.3,29.95,WNW,293,4.0,4.0,66,0.00,,,0.00,WUHU216HW,2013-05-22 09:01:00,
2013-05-22 02:06:00,49.0,37.7,29.95,NNW,338,1.8,4.0,65,0.00,,,0.00,WUHU216HW,2013-05-22 09:06:00,
2013-05-22 02:11:00,49.0,37.7,29.95,WNW,293,0.4,3.4,65,0.00,,,0.00,WUHU216HW,2013-05-22 09:11:00,
2013-05-22 02:16:00,49.0,37.7,29.95,West,270,1.8,3.4,65,0.00,,,0.00,WUHU216HW,2013-05-22 09:16:00,
2013-05-22 02:21:00,48.8,37.5,29.95,WSW,248,1.6,4.0,65,0.00,,,0.00,WUHU216HW,2013-05-22 09:21:00,
2013-05-22 02:26:00,48.6,37.4,29.95,NW,315,1.6,4.0,65,0.00,,,0.00,WUHU216HW,2013-05-22 09:26:00,
2013-05-22 02:31:00,48.6,37.4,29.95,WNW,293,0.4,2.7,65,0.00,,,0.00,WUHU216HW,2013-05-22 09:31:00,
2013-05-22 02:36:00,48.4,37.2,29.95,WNW,293,0.7,2.9,65,0.00,,,0.00,WUHU216HW,2013-05-22 09:36:00,
2013-05-22 02:41:00,48.2,37.0,29.95,NW,315,1.1,2.9,65,0.00,,,0.00,WUHU216HW,2013-05-22 09:41:00,
2013-05-22 02:46:00,48.2,37.0,29.95,WNW,293,1.6,2.5,65,0.00,,,0.00,WUHU216HW,2013-05-22 09:46:00,
2013-05-22 02:51:00,47.9,36.6,29.95,WNW,293,2.7,2.7,65,0.00,,,0.00,WUHU216HW,2013-05-22 09:51:00,
2013-05-22 02:56:00,47.9,36.6,29.95,WNW,293,1.6,2.7,65,0.00,,,0.00,WUHU216HW,2013-05-22 09:56:00,
2013-05-22 03:01:00,47.9,36.6,29.95,WNW,293,0.2,1.8,65,0.00,,,0.00,WUHU216HW,2013-05-22 10:01:00,
2013-05-22 03:06:00,47.7,36.9,29.95,West,270,1.1,1.8,66,0.00,,,0.00,WUHU216HW,2013-05-22 10:06:00,
2013-05-22 03:11:00,47.7,37.6,29.95,West,270,1.8,1.8,68,0.00,,,0.00,WUHU216HW,2013-05-22 10:11:00,
2013-05-22 03:16:00,47.5,37.1,29.95,West,270,1.1,2.5,67,0.00,,,0.00,WUHU216HW,2013-05-22 10:16:00,
2013-05-22 03:21:00,47.3,36.9,29.95,West,270,1.1,2.5,67,0.00,,,0.00,WUHU216HW,2013-05-22 10:21:00,
2013-05-22 03:26:00,47.2,36.4,29.95,West,270,2.0,2.0,66,0.00,,,0.00,WUHU216HW,2013-05-22 10:26:00,
2013-05-22 03:31:00,47.2,36.7,29.95,West,270,0.7,2.0,67,0.00,,,0.00,WUHU216HW,2013-05-22 10:31:00,
2013-05-22 03:36:00,47.0,36.2,29.95,NW,315,1.1,1.8,66,0.00,,,0.00,WUHU216HW,2013-05-22 10:36:00,
2013-05-22 03:41:00,46.8,36.5,29.95,NW,315,0.2,1.6,67,0.00,,,0.00,WUHU216HW,2013-05-22 10:41:00,
2013-05-22 03:46:00,46.6,36.3,29.95,ENE,68,0.2,0.4,67,0.00,,,0.00,WUHU216HW,2013-05-22 10:46:00,
2013-05-22 03:51:00,46.4,36.1,29.95,ENE,68,0.4,0.4,67,0.00,,,0.00,WUHU216HW,2013-05-22 10:51:00,
2013-05-22 03:56:00,46.3,36.3,29.95,NE,45,0.0,0.4,68,0.00,,,0.00,WUHU216HW,2013-05-22 10:56:00,
2013-05-22 04:01:00,46.3,36.3,29.95,East,90,0.4,0.7,68,0.00,,,0.00,WUHU216HW,2013-05-22 11:01:00,
2013-05-22 04:06:00,45.9,35.9,29.95,ENE,68,0.4,0.7,68,0.00,,,0.00,WUHU216HW,2013-05-22 11:06:00,
2013-05-22 04:11:00,45.9,37.5,29.95,ENE,68,0.0,0.4,72,0.00,,,0.00,WUHU216HW,2013-05-22 11:11:00,
2013-05-22 04:16:00,45.7,36.9,29.95,ENE,68,0.0,0.2,71,0.00,,,0.00,WUHU216HW,2013-05-22 11:16:00,
2013-05-22 04:21:00,45.5,36.4,29.95,East,90,0.4,0.4,70,0.00,,,0.00,WUHU216HW,2013-05-22 11:21:00,
2013-05-22 04:26:00,45.2,36.0,29.95,ENE,68,0.4,0.4,70,0.00,,,0.00,WUHU216HW,2013-05-22 11:26:00,
2013-05-22 04:31:00,45.0,36.2,29.95,East,90,0.2,0.4,71,0.00,,,0.00,WUHU216HW,2013-05-22 11:31:00,
2013-05-22 04:36:00,44.6,35.8,29.95,ENE,68,0.0,0.4,71,0.00,,,0.00,WUHU216HW,2013-05-22 11:36:00,
2013-05-22 04:41:00,44.5,35.7,29.95,NE,45,0.0,0.4,71,0.00,,,0.00,WUHU216HW,2013-05-22 11:41:00,
2013-05-22 04:46:00,44.3,35.8,29.95,ENE,68,0.0,0.2,72,0.00,,,0.00,WUHU216HW,2013-05-22 11:46:00,
2013-05-22 04:51:00,44.1,35.6,29.95,NNE,23,0.2,0.4,72,0.00,,,0.00,WUHU216HW,2013-05-22 11:51:00,
2013-05-22 04:56:00,44.1,35.6,29.95,NNE,23,0.2,0.4,72,0.00,,,0.00,WUHU216HW,2013-05-22 11:56:00,
2013-05-22 05:01:00,43.9,35.5,29.95,NE,45,0.0,0.4,72,0.00,,,0.00,WUHU216HW,2013-05-22 12:01:00,
2013-05-22 05:06:00,43.7,35.0,29.95,NE,45,0.0,0.4,71,0.00,,,0.00,WUHU216HW,2013-05-22 12:06:00,
2013-05-22 05:11:00,43.7,36.0,29.95,NE,45,0.2,0.2,74,0.00,,,0.00,WUHU216HW,2013-05-22 12:11:00,
2013-05-22 05:16:00,43.6,35.8,29.95,NE,45,0.2,0.4,74,0.00,,,0.00,WUHU216HW,2013-05-22 12:16:00,
2013-05-22 05:21:00,43.6,35.8,29.95,NE,45,0.4,0.4,74,0.00,,,0.00,WUHU216HW,2013-05-22 12:21:00,
2013-05-22 05:26:00,43.4,35.6,29.95,ENE,68,0.4,1.1,74,0.00,,,0.00,WUHU216HW,2013-05-22 12:26:00,
2013-05-22 05:31:00,43.2,35.5,29.95,NE,45,0.0,1.1,74,0.00,,,0.00,WUHU216HW,2013-05-22 12:31:00,
2013-05-22 05:36:00,43.0,35.3,29.95,NNE,23,0.0,0.9,74,0.00,,,0.00,WUHU216HW,2013-05-22 12:36:00,
2013-05-22 05:41:00,42.8,35.1,29.95,WNW,293,0.4,0.7,74,0.00,,,0.00,WUHU216HW,2013-05-22 12:41:00,
2013-05-22 05:46:00,42.8,35.1,29.95,ENE,68,0.2,0.9,74,0.00,,,0.00,WUHU216HW,2013-05-22 12:46:00,
2013-05-22 05:51:00,42.8,35.1,29.95,ENE,68,0.0,0.9,74,0.00,,,0.00,WUHU216HW,2013-05-22 12:51:00,
2013-05-22 05:56:00,42.8,35.1,29.95,NNW,338,0.0,0.4,74,0.00,,,0.00,WUHU216HW,2013-05-22 12:56:00,
2013-05-22 06:01:00,42.7,34.9,29.96,NNE,23,0.2,0.2,74,0.00,,,0.00,WUHU216HW,2013-05-22 13:01:00,
2013-05-22 06:06:00,42.5,34.7,29.96,NNE,23,0.0,0.4,74,0.00,,,0.00,WUHU216HW,2013-05-22 13:06:00,
2013-05-22 06:11:00,42.5,34.7,29.96,WSW,248,0.0,0.4,74,0.00,,,0.00,WUHU216HW,2013-05-22 13:11:00,
2013-05-22 06:16:00,42.3,34.6,29.96,NW,315,0.0,0.4,74,0.00,,,0.00,WUHU216HW,2013-05-22 13:16:00,
2013-05-22 06:21:00,42.3,34.9,29.96,NW,315,0.0,0.4,75,0.00,,,0.00,WUHU216HW,2013-05-22 13:21:00,
2013-05-22 06:26:00,42.3,35.3,29.96,WNW,293,0.9,2.2,76,0.00,,,0.00,WUHU216HW,2013-05-22 13:26:00,
2013-05-22 06:31:00,42.7,35.7,29.96,NW,315,1.8,2.2,76,0.00,,,0.00,WUHU216HW,2013-05-22 13:31:00,
2013-05-22 06:36:00,43.2,35.8,29.96,NW,315,0.9,2.2,75,0.00,,,0.00,WUHU216HW,2013-05-22 13:36:00,
2013-05-22 06:41:00,43.7,35.6,29.96,NNW,338,2.2,2.9,73,0.00,,,0.00,WUHU216HW,2013-05-22 13:41:00,
2013-05-22 06:46:00,44.3,35.8,29.96,NNW,338,1.8,2.9,72,0.00,,,0.00,WUHU216HW,2013-05-22 13:46:00,
2013-05-22 06:51:00,44.6,36.2,29.97,NW,315,1.1,2.5,72,0.00,,,0.00,WUHU216HW,2013-05-22 13:51:00,
2013-05-22 06:56:00,45.0,36.6,29.96,WNW,293,0.4,1.1,72,0.00,,,0.00,WUHU216HW,2013-05-22 13:56:00,
2013-05-22 07:01:00,45.4,36.6,29.96,WNW,293,0.9,1.6,71,0.00,,,0.00,WUHU216HW,2013-05-22 14:01:00,
2013-05-22 07:06:00,45.7,36.5,29.97,WNW,293,0.2,2.5,70,0.00,,,0.00,WUHU216HW,2013-05-22 14:06:00,
2013-05-22 07:11:00,46.3,36.7,29.97,West,270,0.2,2.5,69,0.00,,,0.00,WUHU216HW,2013-05-22 14:11:00,
2013-05-22 07:16:00,46.6,36.6,29.97,North,0,0.2,0.7,68,0.00,,,0.00,WUHU216HW,2013-05-22 14:16:00,
2013-05-22 07:21:00,47.0,36.5,29.97,NW,315,0.9,0.9,67,0.00,,,0.00,WUHU216HW,2013-05-22 14:21:00,
2013-05-22 07:26:00,47.3,35.7,29.97,WNW,293,2.9,2.9,64,0.00,,,0.00,WUHU216HW,2013-05-22 14:26:00,
2013-05-22 07:31:00,47.9,36.3,29.97,West,270,0.4,2.9,64,0.00,,,0.00,WUHU216HW,2013-05-22 14:31:00,
2013-05-22 07:36:00,48.2,36.6,29.97,West,270,1.1,1.1,64,0.00,,,0.00,WUHU216HW,2013-05-22 14:36:00,
2013-05-22 07:41:00,48.6,36.5,29.97,WNW,293,0.0,1.1,63,0.00,,,0.00,WUHU216HW,2013-05-22 14:41:00,
2013-05-22 07:46:00,49.1,37.1,29.97,NNW,338,0.7,1.6,63,0.00,,,0.00,WUHU216HW,2013-05-22 14:46:00,
2013-05-22 07:51:00,49.5,37.0,29.97,NW,315,0.9,1.6,62,0.00,,,0.00,WUHU216HW,2013-05-22 14:51:00,
2013-05-22 07:56:00,50.0,37.1,29.97,West,270,1.1,3.1,61,0.00,,,0.00,WUHU216HW,2013-05-22 14:56:00,
2013-05-22 08:01:00,50.4,36.6,29.97,WNW,293,1.1,2.7,59,0.00,,,0.00,WUHU216HW,2013-05-22 15:01:00,
2013-05-22 08:06:00,50.8,36.9,29.97,WNW,293,1.3,2.7,59,0.00,,,0.00,WUHU216HW,2013-05-22 15:06:00,
2013-05-22 08:11:00,51.3,37.0,29.97,West,270,1.8,2.5,58,0.00,,,0.00,WUHU216HW,2013-05-22 15:11:00,
2013-05-22 08:16:00,51.8,36.5,29.97,WNW,293,2.7,2.7,56,0.00,,,0.00,WUHU216HW,2013-05-22 15:16:00,
2013-05-22 08:21:00,52.4,35.7,29.97,West,270,4.0,5.4,53,0.00,,,0.00,WUHU216HW,2013-05-22 15:21:00,
2013-05-22 08:26:00,52.7,36.5,29.97,NW,315,1.8,5.4,54,0.00,,,0.00,WUHU216HW,2013-05-22 15:26:00,
2013-05-22 08:31:00,53.3,36.1,29.97,WNW,293,4.7,4.7,52,0.00,,,0.00,WUHU216HW,2013-05-22 15:31:00,
2013-05-22 08:36:00,53.6,36.4,29.97,WSW,248,1.1,4.7,52,0.00,,,0.00,WUHU216HW,2013-05-22 15:36:00,
2013-05-22 08:41:00,54.0,35.2,29.97,West,270,4.7,6.3,49,0.00,,,0.00,WUHU216HW,2013-05-22 15:41:00,
2013-05-22 08:46:00,54.4,35.6,29.97,WSW,248,1.3,6.3,49,0.00,,,0.00,WUHU216HW,2013-05-22 15:46:00,
2013-05-22 08:51:00,54.9,36.6,29.97,WNW,293,1.1,4.0,50,0.00,,,0.00,WUHU216HW,2013-05-22 15:51:00,
2013-05-22 08:56:00,55.3,36.4,29.97,NNW,338,1.8,4.0,49,0.00,,,0.00,WUHU216HW,2013-05-22 15:56:00,
2013-05-22 09:01:00,55.6,35.6,29.97,NW,315,0.4,4.0,47,0.00,,,0.00,WUHU216HW,2013-05-22 16:01:00,
2013-05-22 09:06:00,55.8,35.7,29.97,West,270,5.1,5.1,47,0.00,,,0.00,WUHU216HW,2013-05-22 16:06:00,
2013-05-22 09:11:00,56.2,35.0,29.97,WNW,293,4.9,5.1,45,0.00,,,0.00,WUHU216HW,2013-05-22 16:11:00,
2013-05-22 09:16:00,56.5,35.3,29.97,WSW,248,1.3,4.9,45,0.00,,,0.00,WUHU216HW,2013-05-22 16:16:00,
2013-05-22 09:21:00,56.9,35.1,29.97,NW,315,6.9,6.9,44,0.00,,,0.00,WUHU216HW,2013-05-22 16:21:00,
2013-05-22 09:26:00,57.2,34.3,29.97,NW,315,6.3,6.9,42,0.00,,,0.00,WUHU216HW,2013-05-22 16:26:00,
2013-05-22 09:31:00,57.6,35.2,29.97,WSW,248,4.0,6.5,43,0.00,,,0.00,WUHU216HW,2013-05-22 16:31:00,
2013-05-22 09:36:00,58.3,34.7,29.97,West,270,1.1,5.4,41,0.00,,,0.00,WUHU216HW,2013-05-22 16:36:00,
2013-05-22 09:41:00,58.7,35.0,29.97,West,270,5.8,5.8,41,0.00,,,0.00,WUHU216HW,2013-05-22 16:41:00,
2013-05-22 09:46:00,59.0,34.0,29.97,West,270,3.1,5.8,39,0.00,,,0.00,WUHU216HW,2013-05-22 16:46:00,
2013-05-22 09:51:00,59.4,33.7,29.97,NNE,23,1.1,5.4,38,0.00,,,0.00,WUHU216HW,2013-05-22 16:51:00,
2013-05-22 09:56:00,59.9,34.1,29.97,NNW,338,1.3,3.1,38,0.00,,,0.00,WUHU216HW,2013-05-22 16:56:00,
2013-05-22 10:01:00,60.7,31.1,29.96,ESE,113,1.6,3.8,33,0.00,,,0.00,WUHU216HW,2013-05-22 17:01:00,
2013-05-22 10:06:00,60.8,32.0,29.97,NW,315,0.4,3.8,34,0.00,,,0.00,WUHU216HW,2013-05-22 17:06:00,
2013-05-22 10:11:00,61.4,30.3,29.97,North,0,4.3,6.3,31,0.00,,,0.00,WUHU216HW,2013-05-22 17:11:00,
2013-05-22 10:16:00,61.6,31.2,29.96,WNW,293,6.5,6.5,32,0.00,,,0.00,WUHU216HW,2013-05-22 17:16:00,
2013-05-22 10:21:00,61.7,31.4,29.96,NNE,23,1.1,6.7,32,0.00,,,0.00,WUHU216HW,2013-05-22 17:21:00,
2013-05-22 10:26:00,62.3,30.4,29.96,WNW,293,0.2,6.7,30,0.00,,,0.00,WUHU216HW,2013-05-22 17:26:00,
2013-05-22 10:31:00,62.6,30.8,29.96,West,270,1.3,3.4,30,0.00,,,0.00,WUHU216HW,2013-05-22 17:31:00,
2013-05-22 10:36:00,63.0,31.2,29.96,NW,315,6.3,6.3,30,0.00,,,0.00,WUHU216HW,2013-05-22 17:36:00,
2013-05-22 10:41:00,63.4,32.9,29.96,NW,315,3.6,6.3,32,0.00,,,0.00,WUHU216HW,2013-05-22 17:41:00,
2013-05-22 10:46:00,63.5,32.3,29.96,West,270,1.8,3.6,31,0.00,,,0.00,WUHU216HW,2013-05-22 17:46:00,
2013-05-22 10:51:00,63.7,30.8,29.96,NNE,23,2.2,3.4,29,0.00,,,0.00,WUHU216HW,2013-05-22 17:51:00,
2013-05-22 10:56:00,63.7,29.8,29.96,SSW,203,4.0,4.5,28,0.00,,,0.00,WUHU216HW,2013-05-22 17:56:00,
2013-05-22 11:01:00,64.1,29.2,29.96,West,270,2.5,8.5,27,0.00,,,0.00,WUHU216HW,2013-05-22 18:01:00,
2013-05-22 11:06:00,64.3,31.2,29.96,WNW,293,0.9,8.5,29,0.00,,,0.00,WUHU216HW,2013-05-22 18:06:00,
2013-05-22 11:11:00,64.4,31.4,29.97,NW,315,1.1,4.9,29,0.00,,,0.00,WUHU216HW,2013-05-22 18:11:00,
2013-05-22 11:16:00,64.4,31.4,29.96,WNW,293,2.2,3.1,29,0.00,,,0.00,WUHU216HW,2013-05-22 18:16:00,
2013-05-22 11:21:00,64.6,31.6,29.96,North,0,2.7,4.0,29,0.00,,,0.00,WUHU216HW,2013-05-22 18:21:00,
2013-05-22 11:26:00,64.8,30.8,29.96,NE,45,2.5,4.0,28,0.00,,,0.00,WUHU216HW,2013-05-22 18:26:00,
2013-05-22 11:31:00,65.2,32.0,29.96,NNW,338,3.6,3.6,29,0.00,,,0.00,WUHU216HW,2013-05-22 18:31:00,
2013-05-22 11:36:00,65.3,29.3,29.96,NW,315,1.6,5.6,26,0.00,,,0.00,WUHU216HW,2013-05-22 18:36:00,
2013-05-22 11:41:00,65.3,32.2,29.96,ENE,68,5.6,5.6,29,0.00,,,0.00,WUHU216HW,2013-05-22 18:41:00,
2013-05-22 11:46:00,65.3,31.2,29.96,NW,315,0.4,5.6,28,0.00,,,0.00,WUHU216HW,2013-05-22 18:46:00,
2013-05-22 11:51:00,65.9,29.7,29.96,NW,315,4.7,4.9,26,0.00,,,0.00,WUHU216HW,2013-05-22 18:51:00,
2013-05-22 11:56:00,65.7,31.5,29.95,West,270,2.7,9.6,28,0.00,,,0.00,WUHU216HW,2013-05-22 18:56:00,
2013-05-22 12:01:00,65.9,31.7,29.95,NW,315,2.5,9.6,28,0.00,,,0.00,WUHU216HW,2013-05-22 19:01:00,
2013-05-22 12:06:00,66.2,32.1,29.95,North,0,1.3,9.4,28,0.00,,,0.00,WUHU216HW,2013-05-22 19:06:00,
2013-05-22 12:11:00,66.6,30.3,29.95,NW,315,4.0,4.0,26,0.00,,,0.00,WUHU216HW,2013-05-22 19:11:00,
2013-05-22 12:16:00,66.6,32.3,29.95,NNE,23,1.3,4.0,28,0.00,,,0.00,WUHU216HW,2013-05-22 19:16:00,
2013-05-22 12:21:00,66.8,32.5,29.95,WNW,293,1.8,2.9,28,0.00,,,0.00,WUHU216HW,2013-05-22 19:21:00,
2013-05-22 12:26:00,66.8,31.4,29.95,NE,45,1.8,9.8,27,0.00,,,0.00,WUHU216HW,2013-05-22 19:26:00,
2013-05-22 12:31:00,67.0,29.6,29.95,SW,225,5.1,9.8,25,0.00,,,0.00,WUHU216HW,2013-05-22 19:31:00,
2013-05-22 12:36:00,66.8,29.4,29.94,West,270,6.3,6.3,25,0.00,,,0.00,WUHU216HW,2013-05-22 19:36:00,
2013-05-22 12:41:00,67.0,30.6,29.94,WSW,248,0.9,6.3,26,0.00,,,0.00,WUHU216HW,2013-05-22 19:41:00,
2013-05-22 12:46:00,67.0,29.6,29.94,SW,225,0.9,5.1,25,0.00,,,0.00,WUHU216HW,2013-05-22 19:46:00,
2013-05-22 12:51:00,67.1,30.8,29.93,NNW,338,2.9,6.0,26,0.00,,,0.00,WUHU216HW,2013-05-22 19:51:00,
2013-05-22 12:56:00,67.3,28.9,29.93,NNE,23,6.0,6.0,24,0.00,,,0.00,WUHU216HW,2013-05-22 19:56:00,
2013-05-22 13:01:00,67.5,31.1,29.93,ESE,113,1.8,6.0,26,0.00,,,0.00,WUHU216HW,2013-05-22 20:01:00,
2013-05-22 13:06:00,67.9,30.3,29.93,West,270,3.4,3.4,25,0.00,,,0.00,WUHU216HW,2013-05-22 20:06:00,
2013-05-22 13:11:00,68.0,30.5,29.93,WNW,293,6.3,6.3,25,0.00,,,0.00,WUHU216HW,2013-05-22 20:11:00,
2013-05-22 13:16:00,68.4,31.8,29.93,North,0,5.1,6.9,26,0.00,,,0.00,WUHU216HW,2013-05-22 20:16:00,
2013-05-22 13:21:00,68.4,29.8,29.93,North,0,2.5,6.9,24,0.00,,,0.00,WUHU216HW,2013-05-22 20:21:00,
2013-05-22 13:26:00,68.4,30.8,29.92,NNE,23,1.1,4.7,25,0.00,,,0.00,WUHU216HW,2013-05-22 20:26:00,
2013-05-22 13:31:00,68.6,29.0,29.92,East,90,2.5,4.7,23,0.00,,,0.00,WUHU216HW,2013-05-22 20:31:00,
2013-05-22 13:36:00,68.8,29.2,29.92,East,90,2.2,4.0,23,0.00,,,0.00,WUHU216HW,2013-05-22 20:36:00,
2013-05-22 13:41:00,68.8,30.2,29.92,SSE,158,3.4,4.0,24,0.00,,,0.00,WUHU216HW,2013-05-22 20:41:00,
2013-05-22 13:46:00,68.8,32.1,29.92,SSW,203,6.3,6.3,26,0.00,,,0.00,WUHU216HW,2013-05-22 20:46:00,
2013-05-22 13:51:00,68.9,33.3,29.92,ENE,68,1.6,6.3,27,0.00,,,0.00,WUHU216HW,2013-05-22 20:51:00,
2013-05-22 13:56:00,69.5,32.8,29.92,WSW,248,5.4,6.3,26,0.00,,,0.00,WUHU216HW,2013-05-22 20:56:00,
2013-05-22 14:01:00,69.3,39.5,29.91,SSW,203,4.5,5.6,34,0.00,,,0.00,WUHU216HW,2013-05-22 21:01:00,
2013-05-22 14:06:00,68.6,38.9,29.92,WSW,248,8.3,12.1,34,0.00,,,0.00,WUHU216HW,2013-05-22 21:06:00,
2013-05-22 14:11:00,68.6,38.9,29.92,West,270,7.4,13.0,34,0.00,,,0.00,WUHU216HW,2013-05-22 21:11:00,
2013-05-22 14:16:00,68.4,39.5,29.92,NW,315,5.8,13.0,35,0.00,,,0.00,WUHU216HW,2013-05-22 21:16:00,
2013-05-22 14:21:00,68.6,39.6,29.92,West,270,6.7,12.1,35,0.00,,,0.00,WUHU216HW,2013-05-22 21:21:00,
2013-05-22 14:26:00,68.8,39.8,29.91,West,270,7.6,11.0,35,0.00,,,0.00,WUHU216HW,2013-05-22 21:26:00,
2013-05-22 14:31:00,68.2,38.6,29.91,WSW,248,9.8,11.0,34,0.00,,,0.00,WUHU216HW,2013-05-22 21:31:00,
2013-05-22 14:36:00,67.9,39.0,29.91,West,270,6.9,10.1,35,0.00,,,0.00,WUHU216HW,2013-05-22 21:36:00,
2013-05-22 14:41:00,68.0,38.4,29.91,West,270,8.9,8.9,34,0.00,,,0.00,WUHU216HW,2013-05-22 21:41:00,
2013-05-22 14:46:00,67.5,38.7,29.91,SW,225,5.4,12.1,35,0.00,,,0.00,WUHU216HW,2013-05-22 21:46:00,
2013-05-22 14:51:00,67.5,39.4,29.91,West,270,8.9,12.1,36,0.00,,,0.00,WUHU216HW,2013-05-22 21:51:00,
2013-05-22 14:56:00,68.0,40.6,29.91,SW,225,6.9,11.4,37,0.00,,,0.00,WUHU216HW,2013-05-22 21:56:00,
2013-05-22 15:01:00,68.0,39.2,29.90,WSW,248,5.1,10.7,35,0.00,,,0.00,WUHU216HW,2013-05-22 22:01:00,
2013-05-22 15:06:00,68.4,40.2,29.90,WNW,293,5.4,11.6,36,0.00,,,0.00,WUHU216HW,2013-05-22 22:06:00,
2013-05-22 15:11:00,68.6,38.9,29.90,WSW,248,9.6,12.8,34,0.00,,,0.00,WUHU216HW,2013-05-22 22:11:00,
2013-05-22 15:16:00,68.4,38.7,29.90,WNW,293,6.3,12.8,34,0.00,,,0.00,WUHU216HW,2013-05-22 22:16:00,
2013-05-22 15:21:00,67.7,38.1,29.90,West,270,6.5,11.2,34,0.00,,,0.00,WUHU216HW,2013-05-22 22:21:00,
2013-05-22 15:26:00,67.7,39.6,29.90,SE,135,7.6,11.6,36,0.00,,,0.00,WUHU216HW,2013-05-22 22:26:00,
2013-05-22 15:31:00,67.7,40.3,29.90,WNW,293,7.6,11.6,37,0.00,,,0.00,WUHU216HW,2013-05-22 22:31:00,
2013-05-22 15:36:00,67.7,38.9,29.90,West,270,3.1,9.4,35,0.00,,,0.00,WUHU216HW,2013-05-22 22:36:00,
2013-05-22 15:41:00,67.5,38.7,29.90,West,270,6.9,11.6,35,0.00,,,0.00,WUHU216HW,2013-05-22 22:41:00,
2013-05-22 15:46:00,67.5,38.0,29.90,SW,225,9.8,11.6,34,0.00,,,0.00,WUHU216HW,2013-05-22 22:46:00,
2013-05-22 15:51:00,67.5,37.3,29.90,West,270,6.7,12.3,33,0.00,,,0.00,WUHU216HW,2013-05-22 22:51:00,
2013-05-22 15:56:00,67.7,37.4,29.90,WSW,248,4.5,12.3,33,0.00,,,0.00,WUHU216HW,2013-05-22 22:56:00,
2013-05-22 16:01:00,67.9,37.5,29.89,SW,225,8.7,9.8,33,0.00,,,0.00,WUHU216HW,2013-05-22 23:01:00,
2013-05-22 16:06:00,68.0,37.7,29.89,WSW,248,4.7,9.8,33,0.00,,,0.00,WUHU216HW,2013-05-22 23:06:00,
2013-05-22 16:11:00,68.0,37.7,29.89,SW,225,5.4,7.8,33,0.00,,,0.00,WUHU216HW,2013-05-22 23:11:00,
2013-05-22 16:16:00,68.0,37.7,29.89,WSW,248,4.0,7.6,33,0.00,,,0.00,WUHU216HW,2013-05-22 23:16:00,
2013-05-22 16:21:00,68.0,37.7,29.89,West,270,5.8,9.8,33,0.00,,,0.00,WUHU216HW,2013-05-22 23:21:00,
2013-05-22 16:26:00,67.9,37.5,29.89,West,270,10.3,15.7,33,0.00,,,0.00,WUHU216HW,2013-05-22 23:26:00,
2013-05-22 16:31:00,67.7,37.4,29.89,SW,225,6.9,15.7,33,0.00,,,0.00,WUHU216HW,2013-05-22 23:31:00,
2013-05-22 16:36:00,67.5,37.3,29.89,WNW,293,2.7,10.5,33,0.00,,,0.00,WUHU216HW,2013-05-22 23:36:00,
2013-05-22 16:41:00,67.7,38.1,29.89,West,270,8.5,10.5,34,0.00,,,0.00,WUHU216HW,2013-05-22 23:41:00,
2013-05-22 16:46:00,67.7,37.4,29.89,WSW,248,5.4,10.1,33,0.00,,,0.00,WUHU216HW,2013-05-22 23:46:00,
2013-05-22 16:51:00,67.3,37.1,29.89,WSW,248,9.2,10.1,33,0.00,,,0.00,WUHU216HW,2013-05-22 23:51:00,
2013-05-22 16:56:00,67.3,37.1,29.89,SSW,203,3.1,9.2,33,0.00,,,0.00,WUHU216HW,2013-05-22 23:56:00,
2013-05-22 17:01:00,67.0,37.5,29.89,West,270,10.1,10.1,34,0.00,,,0.00,WUHU216HW,2013-05-23 00:01:00,
2013-05-22 17:06:00,66.6,37.2,29.89,SW,225,4.7,10.1,34,0.00,,,0.00,WUHU216HW,2013-05-23 00:06:00,
2013-05-22 17:11:00,66.2,36.9,29.89,WNW,293,4.0,9.4,34,0.00,,,0.00,WUHU216HW,2013-05-23 00:11:00,
2013-05-22 17:16:00,65.9,36.5,29.89,SSW,203,4.0,8.9,34,0.00,,,0.00,WUHU216HW,2013-05-23 00:16:00,
2013-05-22 17:21:00,65.3,38.3,29.89,WSW,248,8.3,9.8,37,0.00,,,0.00,WUHU216HW,2013-05-23 00:21:00,
2013-05-22 17:26:00,65.0,39.3,29.89,SSW,203,8.3,9.8,39,0.00,,,0.00,WUHU216HW,2013-05-23 00:26:00,
2013-05-22 17:31:00,64.4,39.6,29.89,WSW,248,6.3,8.3,40,0.00,,,0.00,WUHU216HW,2013-05-23 00:31:00,
2013-05-22 17:36:00,63.9,39.2,29.88,WSW,248,7.8,10.3,40,0.00,,,0.00,WUHU216HW,2013-05-23 00:36:00,
2013-05-22 17:41:00,63.5,40.5,29.88,SSW,203,4.7,10.3,43,0.00,,,0.00,WUHU216HW,2013-05-23 00:41:00,
2013-05-22 17:46:00,63.4,40.3,29.88,West,270,5.8,6.3,43,0.00,,,0.00,WUHU216HW,2013-05-23 00:46:00,
2013-05-22 17:51:00,63.0,40.6,29.88,WNW,293,4.7,10.5,44,0.00,,,0.00,WUHU216HW,2013-05-23 00:51:00,
2013-05-22 17:56:00,62.6,40.9,29.88,West,270,4.7,10.5,45,0.00,,,0.00,WUHU216HW,2013-05-23 00:56:00,
2013-05-22 18:01:00,62.6,41.4,29.88,SW,225,3.4,8.5,46,0.00,,,0.00,WUHU216HW,2013-05-23 01:01:00,
2013-05-22 18:06:00,62.6,41.4,29.88,SW,225,1.8,7.8,46,0.00,,,0.00,WUHU216HW,2013-05-23 01:06:00,
2013-05-22 18:11:00,62.6,41.4,29.88,WSW,248,5.8,8.3,46,0.00,,,0.00,WUHU216HW,2013-05-23 01:11:00,
2013-05-22 18:16:00,62.3,41.7,29.88,SW,225,9.4,9.4,47,0.00,,,0.00,WUHU216HW,2013-05-23 01:16:00,
2013-05-22 18:21:00,61.9,41.9,29.88,West,270,6.3,9.4,48,0.00,,,0.00,WUHU216HW,2013-05-23 01:21:00,
2013-05-22 18:26:00,61.6,41.6,29.87,SSW,203,3.1,9.2,48,0.00,,,0.00,WUHU216HW,2013-05-23 01:26:00,
2013-05-22 18:31:00,61.2,41.9,29.87,North,0,6.0,10.5,49,0.00,,,0.00,WUHU216HW,2013-05-23 01:31:00,
2013-05-22 18:36:00,60.8,41.6,29.87,SW,225,4.7,10.5,49,0.00,,,0.00,WUHU216HW,2013-05-23 01:36:00,
2013-05-22 18:41:00,60.7,41.4,29.87,West,270,3.8,7.6,49,0.00,,,0.00,WUHU216HW,2013-05-23 01:41:00,
2013-05-22 18:47:00,60.5,41.8,29.87,West,270,3.1,5.4,50,0.00,,,0.00,WUHU216HW,2013-05-23 01:47:00,
2013-05-22 18:51:00,60.3,42.1,29.87,SE,135,5.1,6.3,51,0.00,,,0.00,WUHU216HW,2013-05-23 01:51:00,
2013-05-22 18:56:00,59.9,41.8,29.87,SSW,203,4.3,6.3,51,0.00,,,0.00,WUHU216HW,2013-05-23 01:56:00,
2013-05-22 19:02:00,59.8,42.1,29.87,SSW,203,1.8,5.1,52,0.00,,,0.00,WUHU216HW,2013-05-23 02:02:00,
2013-05-22 19:07:00,59.2,42.0,29.87,West,270,6.3,6.3,53,0.00,,,0.00,WUHU216HW,2013-05-23 02:07:00,
2013-05-22 19:12:00,59.2,42.6,29.87,West,270,3.8,6.3,54,0.00,,,0.00,WUHU216HW,2013-05-23 02:12:00,
2013-05-22 19:17:00,58.9,42.2,29.87,WSW,248,2.9,6.9,54,0.00,,,0.00,WUHU216HW,2013-05-23 02:17:00,
2013-05-22 19:22:00,58.5,42.4,29.87,SW,225,4.5,7.8,55,0.00,,,0.00,WUHU216HW,2013-05-23 02:22:00,
2013-05-22 19:27:00,58.1,41.6,29.87,South,180,2.5,7.8,54,0.00,,,0.00,WUHU216HW,2013-05-23 02:27:00,
2013-05-22 19:32:00,57.6,41.0,29.88,SSW,203,4.0,5.6,54,0.00,,,0.00,WUHU216HW,2013-05-23 02:32:00,
2013-05-22 19:37:00,57.4,41.4,29.88,SSW,203,4.9,6.7,55,0.00,,,0.00,WUHU216HW,2013-05-23 02:37:00,
2013-05-22 19:42:00,57.1,41.0,29.88,SSW,203,0.4,6.7,55,0.00,,,0.00,WUHU216HW,2013-05-23 02:42:00,
2013-05-22 19:47:00,56.9,41.8,29.88,South,180,3.8,6.0,57,0.00,,,0.00,WUHU216HW,2013-05-23 02:47:00,
2013-05-22 19:52:00,56.5,42.0,29.88,South,180,4.0,4.9,58,0.00,,,0.00,WUHU216HW,2013-05-23 02:52:00,
2013-05-22 19:57:00,56.2,42.0,29.88,SW,225,4.0,4.7,59,0.00,,,0.00,WUHU216HW,2013-05-23 02:57:00,
2013-05-22 20:02:00,56.0,42.3,29.88,SW,225,3.4,4.7,60,0.00,,,0.00,WUHU216HW,2013-05-23 03:02:00,
2013-05-22 20:07:00,55.8,42.1,29.88,SSE,158,1.8,4.0,60,0.00,,,0.00,WUHU216HW,2013-05-23 03:07:00,
2013-05-22 20:12:00,55.4,42.2,29.88,SE,135,2.5,4.3,61,0.00,,,0.00,WUHU216HW,2013-05-23 03:12:00,
2013-05-22 20:17:00,55.3,43.3,29.89,SSW,203,3.6,8.3,64,0.00,,,0.00,WUHU216HW,2013-05-23 03:17:00,
2013-05-22 20:22:00,54.9,42.9,29.88,ESE,113,1.8,8.3,64,0.00,,,0.00,WUHU216HW,2013-05-23 03:22:00,
2013-05-22 20:27:00,54.7,43.1,29.89,South,180,1.6,5.4,65,0.00,,,0.00,WUHU216HW,2013-05-23 03:27:00,
2013-05-22 20:32:00,54.5,43.0,29.89,SSE,158,1.8,4.7,65,0.00,,,0.00,WUHU216HW,2013-05-23 03:32:00,
2013-05-22 20:37:00,54.4,42.9,29.88,ESE,113,0.9,3.4,65,0.00,,,0.00,WUHU216HW,2013-05-23 03:37:00,
2013-05-22 20:42:00,54.0,43.3,29.89,SE,135,2.5,4.0,67,0.00,,,0.00,WUHU216HW,2013-05-23 03:42:00,
2013-05-22 20:47:00,53.8,43.1,29.88,SSE,158,1.6,4.3,67,0.00,,,0.00,WUHU216HW,2013-05-23 03:47:00,
2013-05-22 20:52:00,53.6,43.3,29.89,South,180,4.0,5.4,68,0.00,,,0.00,WUHU216HW,2013-05-23 03:52:00,
2013-05-22 20:57:00,53.5,43.1,29.89,SSE,158,3.6,5.4,68,0.00,,,0.00,WUHU216HW,2013-05-23 03:57:00,
2013-05-22 21:01:00,53.3,43.4,29.89,ESE,113,0.7,4.3,69,0.00,,,0.00,WUHU216HW,2013-05-23 04:01:00,
2013-05-22 21:06:00,53.1,43.2,29.89,South,180,3.6,4.5,69,0.00,,,0.00,WUHU216HW,2013-05-23 04:06:00,
2013-05-22 21:11:00,52.9,43.0,29.89,South,180,1.8,4.5,69,0.00,,,0.00,WUHU216HW,2013-05-23 04:11:00,
2013-05-22 21:16:00,52.7,43.3,29.89,SSE,158,2.2,3.4,70,0.00,,,0.00,WUHU216HW,2013-05-23 04:16:00,
2013-05-22 21:21:00,52.7,43.3,29.89,South,180,1.6,4.3,70,0.00,,,0.00,WUHU216HW,2013-05-23 04:21:00,
2013-05-22 21:26:00,52.4,42.9,29.89,SSE,158,1.8,4.3,70,0.00,,,0.00,WUHU216HW,2013-05-23 04:26:00,
2013-05-22 21:31:00,52.2,43.5,29.89,SSE,158,0.7,2.5,72,0.00,,,0.00,WUHU216HW,2013-05-23 04:31:00,
2013-05-22 21:36:00,52.2,42.9,29.89,SSE,158,2.0,3.4,70,0.00,,,0.00,WUHU216HW,2013-05-23 04:36:00,
2013-05-22 21:41:00,52.0,43.0,29.89,SW,225,0.0,3.4,71,0.00,,,0.00,WUHU216HW,2013-05-23 04:41:00,
2013-05-22 21:46:00,51.8,42.5,29.90,SE,135,1.8,3.8,70,0.00,,,0.00,WUHU216HW,2013-05-23 04:46:00,
2013-05-22 21:51:00,51.7,42.7,29.90,SSE,158,2.5,3.8,71,0.00,,,0.00,WUHU216HW,2013-05-23 04:51:00,
2013-05-22 21:56:00,51.7,42.7,29.90,SSW,203,1.6,3.6,71,0.00,,,0.00,WUHU216HW,2013-05-23 04:56:00,
2013-05-22 22:01:00,51.5,42.5,29.90,SSW,203,1.6,2.5,71,0.00,,,0.00,WUHU216HW,2013-05-23 05:01:00,
2013-05-22 22:06:00,51.5,42.5,29.90,SSE,158,2.5,2.5,71,0.00,,,0.00,WUHU216HW,2013-05-23 05:06:00,
2013-05-22 22:11:00,51.3,42.7,29.90,ENE,68,0.0,2.5,72,0.00,,,0.00,WUHU216HW,2013-05-23 05:11:00,
2013-05-22 22:16:00,51.3,42.7,29.90,SSE,158,2.5,2.5,72,0.00,,,0.00,WUHU216HW,2013-05-23 05:16:00,
2013-05-22 22:21:00,51.3,42.7,29.90,SE,135,0.9,2.5,72,0.00,,,0.00,WUHU216HW,2013-05-23 05:21:00,
2013-05-22 22:26:00,51.1,42.5,29.90,SE,135,1.1,2.0,72,0.00,,,0.00,WUHU216HW,2013-05-23 05:26:00,
2013-05-22 22:31:00,50.9,42.3,29.90,SSW,203,0.7,2.0,72,0.00,,,0.00,WUHU216HW,2013-05-23 05:31:00,
2013-05-22 22:36:00,50.8,42.4,29.90,SSW,203,1.6,1.6,73,0.00,,,0.00,WUHU216HW,2013-05-23 05:36:00,
2013-05-22 22:41:00,50.8,42.4,29.90,SE,135,0.2,1.6,73,0.00,,,0.00,WUHU216HW,2013-05-23 05:41:00,
2013-05-22 22:46:00,50.6,42.0,29.90,SSE,158,0.0,0.2,72,0.00,,,0.00,WUHU216HW,2013-05-23 05:46:00,
2013-05-22 22:51:00,50.4,41.8,29.90,South,180,0.0,0.0,72,0.00,,,0.00,WUHU216HW,2013-05-23 05:51:00,
2013-05-22 22:56:00,50.2,41.9,29.90,WNW,293,2.5,2.5,73,0.00,,,0.00,WUHU216HW,2013-05-23 05:56:00,
2013-05-22 23:01:00,50.2,41.9,29.90,West,270,0.0,2.5,73,0.00,,,0.00,WUHU216HW,2013-05-23 06:01:00,
2013-05-22 23:06:00,50.0,41.7,29.90,East,90,0.7,0.7,73,0.00,,,0.00,WUHU216HW,2013-05-23 06:06:00,
2013-05-22 23:11:00,50.0,41.7,29.90,ENE,68,0.7,1.3,73,0.00,,,0.00,WUHU216HW,2013-05-23 06:11:00,
2013-05-22 23:16:00,49.7,41.3,29.90,NE,45,0.4,1.3,73,0.00,,,0.00,WUHU216HW,2013-05-23 06:16:00,
2013-05-22 23:21:00,49.5,41.1,29.90,NE,45,0.0,0.4,73,0.00,,,0.00,WUHU216HW,2013-05-23 06:21:00,
2013-05-22 23:26:00,49.3,41.3,29.90,East,90,0.7,0.7,74,0.00,,,0.00,WUHU216HW,2013-05-23 06:26:00,
2013-05-22 23:31:00,49.1,41.1,29.90,NNE,23,0.0,1.1,74,0.00,,,0.00,WUHU216HW,2013-05-23 06:31:00,
2013-05-22 23:36:00,49.0,41.0,29.89,NNE,23,0.0,1.1,74,0.00,,,0.00,WUHU216HW,2013-05-23 06:36:00,
2013-05-22 23:41:00,48.6,40.6,29.89,East,90,0.4,0.4,74,0.00,,,0.00,WUHU216HW,2013-05-23 06:41:00,
2013-05-22 23:46:00,48.6,41.0,29.90,ENE,68,0.2,0.7,75,0.00,,,0.00,WUHU216HW,2013-05-23 06:46:00,
2013-05-22 23:51:00,48.2,40.6,29.90,NE,45,0.4,0.7,75,0.00,,,0.00,WUHU216HW,2013-05-23 06:51:00,
2013-05-22 23:56:00,48.1,40.4,29.90,NNE,23,0.7,0.7,75,0.00,,,0.00,WUHU216HW,2013-05-23 06:56:00,